sensor_id;sensor_type;location;lat;lon;timestamp;P1;durP1;ratioP1;P2;durP2;ratioP2
24153;SDS011;12312;53.362;-1.518;2023-01-28T00:01:50;23.83;;;13.02;;
24153;SDS011;12312;53.362;-1.518;2023-01-28T00:04:15;24.42;;;12.80;;
24153;SDS011;12312;53.362;-1.518;2023-01-28T00:06:41;24.20;;;13.85;;
24153;SDS011;12312;53.362;-1.518;2023-01-28T00:09:07;25.00;;;14.13;;
24153;SDS011;12312;53.362;-1.518;2023-01-28T00:11:32;22.42;;;13.95;;
24153;SDS011;12312;53.362;-1.518;2023-01-28T00:13:58;24.58;;;14.75;;
24153;SDS011;12312;53.362;-1.518;2023-01-28T00:16:24;26.00;;;15.35;;
24153;SDS011;12312;53.362;-1.518;2023-01-28T00:18:51;28.38;;;15.77;;
24153;SDS011;12312;53.362;-1.518;2023-01-28T00:21:18;27.27;;;16.58;;
24153;SDS011;12312;53.362;-1.518;2023-01-28T00:23:46;27.02;;;16.20;;
24153;SDS011;12312;53.362;-1.518;2023-01-28T00:26:15;26.17;;;15.20;;
24153;SDS011;12312;53.362;-1.518;2023-01-28T00:28:42;29.50;;;15.57;;
24153;SDS011;12312;53.362;-1.518;2023-01-28T00:31:11;28.40;;;16.55;;
24153;SDS011;12312;53.362;-1.518;2023-01-28T00:33:41;29.85;;;17.60;;
24153;SDS011;12312;53.362;-1.518;2023-01-28T00:36:08;30.58;;;16.70;;
24153;SDS011;12312;53.362;-1.518;2023-01-28T00:38:34;31.65;;;16.88;;
24153;SDS011;12312;53.362;-1.518;2023-01-28T00:41:07;25.77;;;14.68;;
24153;SDS011;12312;53.362;-1.518;2023-01-28T00:43:41;24.60;;;13.13;;
24153;SDS011;12312;53.362;-1.518;2023-01-28T00:46:08;22.65;;;12.93;;
24153;SDS011;12312;53.362;-1.518;2023-01-28T00:48:37;21.52;;;12.98;;
24153;SDS011;12312;53.362;-1.518;2023-01-28T00:51:04;21.55;;;11.75;;
24153;SDS011;12312;53.362;-1.518;2023-01-28T00:53:32;19.83;;;12.43;;
24153;SDS011;12312;53.362;-1.518;2023-01-28T00:56:02;18.25;;;10.38;;
24153;SDS011;12312;53.362;-1.518;2023-01-28T00:58:30;13.27;;;9.18;;
24153;SDS011;12312;53.362;-1.518;2023-01-28T01:00:56;24.85;;;13.25;;
24153;SDS011;12312;53.362;-1.518;2023-01-28T01:03:21;18.77;;;11.30;;
24153;SDS011;12312;53.362;-1.518;2023-01-28T01:05:48;15.73;;;9.00;;
24153;SDS011;12312;53.362;-1.518;2023-01-28T01:08:14;15.00;;;8.98;;
24153;SDS011;12312;53.362;-1.518;2023-01-28T01:10:39;14.68;;;8.40;;
24153;SDS011;12312;53.362;-1.518;2023-01-28T01:13:05;13.63;;;8.48;;
24153;SDS011;12312;53.362;-1.518;2023-01-28T01:15:31;10.13;;;6.82;;
24153;SDS011;12312;53.362;-1.518;2023-01-28T01:17:57;9.90;;;6.75;;
24153;SDS011;12312;53.362;-1.518;2023-01-28T01:20:24;11.43;;;6.95;;
24153;SDS011;12312;53.362;-1.518;2023-01-28T01:22:52;14.52;;;8.15;;
24153;SDS011;12312;53.362;-1.518;2023-01-28T01:25:19;10.80;;;7.40;;
24153;SDS011;12312;53.362;-1.518;2023-01-28T01:27:48;12.95;;;7.97;;
24153;SDS011;12312;53.362;-1.518;2023-01-28T01:30:16;12.40;;;7.63;;
24153;SDS011;12312;53.362;-1.518;2023-01-28T01:32:45;13.50;;;7.50;;
24153;SDS011;12312;53.362;-1.518;2023-01-28T01:35:10;11.48;;;7.97;;
24153;SDS011;12312;53.362;-1.518;2023-01-28T01:37:36;11.45;;;8.15;;
24153;SDS011;12312;53.362;-1.518;2023-01-28T01:40:03;15.15;;;9.00;;
24153;SDS011;12312;53.362;-1.518;2023-01-28T01:42:29;16.85;;;9.30;;
24153;SDS011;12312;53.362;-1.518;2023-01-28T01:45:03;20.48;;;10.07;;
24153;SDS011;12312;53.362;-1.518;2023-01-28T01:47:55;22.40;;;12.23;;
24153;SDS011;12312;53.362;-1.518;2023-01-28T01:52:59;30.33;;;15.00;;
24153;SDS011;12312;53.362;-1.518;2023-01-28T01:55:30;30.23;;;14.95;;
24153;SDS011;12312;53.362;-1.518;2023-01-28T01:58:00;36.60;;;17.75;;
24153;SDS011;12312;53.362;-1.518;2023-01-28T02:00:30;36.55;;;18.08;;
24153;SDS011;12312;53.362;-1.518;2023-01-28T02:02:58;38.80;;;19.30;;
24153;SDS011;12312;53.362;-1.518;2023-01-28T02:05:24;37.90;;;18.20;;
24153;SDS011;12312;53.362;-1.518;2023-01-28T02:07:51;39.90;;;19.50;;
24153;SDS011;12312;53.362;-1.518;2023-01-28T02:10:19;40.45;;;18.55;;
24153;SDS011;12312;53.362;-1.518;2023-01-28T02:12:51;40.30;;;17.95;;
24153;SDS011;12312;53.362;-1.518;2023-01-28T02:17:48;36.55;;;17.70;;
24153;SDS011;12312;53.362;-1.518;2023-01-28T02:20:22;36.53;;;16.90;;
24153;SDS011;12312;53.362;-1.518;2023-01-28T02:28:31;29.40;;;15.93;;
24153;SDS011;12312;53.362;-1.518;2023-01-28T02:31:09;31.25;;;15.88;;
24153;SDS011;12312;53.362;-1.518;2023-01-28T02:36:39;29.75;;;14.85;;
24153;SDS011;12312;53.362;-1.518;2023-01-28T02:39:22;33.55;;;15.35;;
24153;SDS011;12312;53.362;-1.518;2023-01-28T02:42:05;28.52;;;14.95;;
24153;SDS011;12312;53.362;-1.518;2023-01-28T02:44:35;26.52;;;14.40;;
24153;SDS011;12312;53.362;-1.518;2023-01-28T02:47:04;27.30;;;13.95;;
24153;SDS011;12312;53.362;-1.518;2023-01-28T02:49:53;28.42;;;14.25;;
24153;SDS011;12312;53.362;-1.518;2023-01-28T02:55:20;26.10;;;14.10;;
24153;SDS011;12312;53.362;-1.518;2023-01-28T03:00:25;28.70;;;14.80;;
24153;SDS011;12312;53.362;-1.518;2023-01-28T03:06:02;24.85;;;13.70;;
24153;SDS011;12312;53.362;-1.518;2023-01-28T03:08:34;29.38;;;15.23;;
24153;SDS011;12312;53.362;-1.518;2023-01-28T03:11:22;27.20;;;14.73;;
24153;SDS011;12312;53.362;-1.518;2023-01-28T03:14:07;28.30;;;14.65;;
24153;SDS011;12312;53.362;-1.518;2023-01-28T03:16:52;28.42;;;14.35;;
24153;SDS011;12312;53.362;-1.518;2023-01-28T03:19:42;32.20;;;16.08;;
24153;SDS011;12312;53.362;-1.518;2023-01-28T03:22:26;26.25;;;14.38;;
24153;SDS011;12312;53.362;-1.518;2023-01-28T03:25:15;26.67;;;13.88;;
24153;SDS011;12312;53.362;-1.518;2023-01-28T03:28:03;29.05;;;14.88;;
24153;SDS011;12312;53.362;-1.518;2023-01-28T03:31:00;30.60;;;15.35;;
24153;SDS011;12312;53.362;-1.518;2023-01-28T03:33:48;27.83;;;14.07;;
24153;SDS011;12312;53.362;-1.518;2023-01-28T03:36:34;29.40;;;14.77;;
24153;SDS011;12312;53.362;-1.518;2023-01-28T03:39:16;32.08;;;15.63;;
24153;SDS011;12312;53.362;-1.518;2023-01-28T03:42:05;31.65;;;15.18;;
24153;SDS011;12312;53.362;-1.518;2023-01-28T03:44:31;31.02;;;15.43;;
24153;SDS011;12312;53.362;-1.518;2023-01-28T03:47:16;32.80;;;15.57;;
24153;SDS011;12312;53.362;-1.518;2023-01-28T03:49:44;30.27;;;14.70;;
24153;SDS011;12312;53.362;-1.518;2023-01-28T03:52:13;33.90;;;16.25;;
24153;SDS011;12312;53.362;-1.518;2023-01-28T03:54:46;29.90;;;15.40;;
24153;SDS011;12312;53.362;-1.518;2023-01-28T03:57:13;33.30;;;15.55;;
24153;SDS011;12312;53.362;-1.518;2023-01-28T03:59:47;33.70;;;15.38;;
24153;SDS011;12312;53.362;-1.518;2023-01-28T04:02:14;28.27;;;13.90;;
24153;SDS011;12312;53.362;-1.518;2023-01-28T04:04:40;26.10;;;14.38;;
24153;SDS011;12312;53.362;-1.518;2023-01-28T04:07:07;29.90;;;14.13;;
24153;SDS011;12312;53.362;-1.518;2023-01-28T04:09:37;33.38;;;14.85;;
24153;SDS011;12312;53.362;-1.518;2023-01-28T04:12:03;27.95;;;14.25;;
24153;SDS011;12312;53.362;-1.518;2023-01-28T04:14:31;29.83;;;13.73;;
24153;SDS011;12312;53.362;-1.518;2023-01-28T04:16:58;25.63;;;13.05;;
24153;SDS011;12312;53.362;-1.518;2023-01-28T04:19:24;30.55;;;14.32;;
24153;SDS011;12312;53.362;-1.518;2023-01-28T04:21:52;25.65;;;13.27;;
24153;SDS011;12312;53.362;-1.518;2023-01-28T04:24:21;28.58;;;14.13;;
24153;SDS011;12312;53.362;-1.518;2023-01-28T04:26:47;30.77;;;13.68;;
24153;SDS011;12312;53.362;-1.518;2023-01-28T04:29:12;28.40;;;13.32;;
24153;SDS011;12312;53.362;-1.518;2023-01-28T04:31:39;25.73;;;13.63;;
24153;SDS011;12312;53.362;-1.518;2023-01-28T04:34:04;27.65;;;13.57;;
24153;SDS011;12312;53.362;-1.518;2023-01-28T04:36:30;24.73;;;13.43;;
24153;SDS011;12312;53.362;-1.518;2023-01-28T04:38:56;26.52;;;13.30;;
24153;SDS011;12312;53.362;-1.518;2023-01-28T04:41:22;24.05;;;13.25;;
24153;SDS011;12312;53.362;-1.518;2023-01-28T04:43:48;24.38;;;13.15;;
24153;SDS011;12312;53.362;-1.518;2023-01-28T04:46:14;27.55;;;12.48;;
24153;SDS011;12312;53.362;-1.518;2023-01-28T04:48:40;23.80;;;13.30;;
24153;SDS011;12312;53.362;-1.518;2023-01-28T04:51:07;25.58;;;12.60;;
24153;SDS011;12312;53.362;-1.518;2023-01-28T04:53:33;22.15;;;12.10;;
24153;SDS011;12312;53.362;-1.518;2023-01-28T04:55:59;24.10;;;12.73;;
24153;SDS011;12312;53.362;-1.518;2023-01-28T04:58:24;26.75;;;13.07;;
24153;SDS011;12312;53.362;-1.518;2023-01-28T05:00:54;27.33;;;13.48;;
24153;SDS011;12312;53.362;-1.518;2023-01-28T05:03:21;27.35;;;14.18;;
24153;SDS011;12312;53.362;-1.518;2023-01-28T05:05:47;29.98;;;14.43;;
24153;SDS011;12312;53.362;-1.518;2023-01-28T05:08:12;28.88;;;13.90;;
24153;SDS011;12312;53.362;-1.518;2023-01-28T05:10:38;30.52;;;14.65;;
24153;SDS011;12312;53.362;-1.518;2023-01-28T05:13:04;29.98;;;15.73;;
24153;SDS011;12312;53.362;-1.518;2023-01-28T05:15:31;29.52;;;14.57;;
24153;SDS011;12312;53.362;-1.518;2023-01-28T05:17:57;29.40;;;13.38;;
24153;SDS011;12312;53.362;-1.518;2023-01-28T05:20:24;32.33;;;14.85;;
24153;SDS011;12312;53.362;-1.518;2023-01-28T05:22:50;26.65;;;13.48;;
24153;SDS011;12312;53.362;-1.518;2023-01-28T05:25:16;23.27;;;13.85;;
24153;SDS011;12312;53.362;-1.518;2023-01-28T05:27:41;25.13;;;14.90;;
24153;SDS011;12312;53.362;-1.518;2023-01-28T05:30:07;27.77;;;14.18;;
24153;SDS011;12312;53.362;-1.518;2023-01-28T05:32:33;26.45;;;13.25;;
24153;SDS011;12312;53.362;-1.518;2023-01-28T05:35:00;23.23;;;13.48;;
24153;SDS011;12312;53.362;-1.518;2023-01-28T05:37:26;25.15;;;13.07;;
24153;SDS011;12312;53.362;-1.518;2023-01-28T05:39:51;26.67;;;12.32;;
24153;SDS011;12312;53.362;-1.518;2023-01-28T05:42:17;30.92;;;13.27;;
24153;SDS011;12312;53.362;-1.518;2023-01-28T05:44:46;26.15;;;13.45;;
24153;SDS011;12312;53.362;-1.518;2023-01-28T05:47:11;24.48;;;12.90;;
24153;SDS011;12312;53.362;-1.518;2023-01-28T05:49:37;25.98;;;13.93;;
24153;SDS011;12312;53.362;-1.518;2023-01-28T05:52:02;25.67;;;12.43;;
24153;SDS011;12312;53.362;-1.518;2023-01-28T05:54:28;28.13;;;14.30;;
24153;SDS011;12312;53.362;-1.518;2023-01-28T05:56:54;27.42;;;13.38;;
24153;SDS011;12312;53.362;-1.518;2023-01-28T05:59:19;24.27;;;13.70;;
24153;SDS011;12312;53.362;-1.518;2023-01-28T06:01:45;25.63;;;13.63;;
24153;SDS011;12312;53.362;-1.518;2023-01-28T06:04:10;29.05;;;15.40;;
24153;SDS011;12312;53.362;-1.518;2023-01-28T06:06:36;36.63;;;15.15;;
24153;SDS011;12312;53.362;-1.518;2023-01-28T06:09:01;31.10;;;14.63;;
24153;SDS011;12312;53.362;-1.518;2023-01-28T06:11:28;33.17;;;16.83;;
24153;SDS011;12312;53.362;-1.518;2023-01-28T06:13:53;33.00;;;15.38;;
24153;SDS011;12312;53.362;-1.518;2023-01-28T06:16:20;32.35;;;16.50;;
24153;SDS011;12312;53.362;-1.518;2023-01-28T06:18:46;31.15;;;16.15;;
24153;SDS011;12312;53.362;-1.518;2023-01-28T06:21:12;31.48;;;16.95;;
24153;SDS011;12312;53.362;-1.518;2023-01-28T06:23:37;29.77;;;14.82;;
24153;SDS011;12312;53.362;-1.518;2023-01-28T06:26:04;32.20;;;14.27;;
24153;SDS011;12312;53.362;-1.518;2023-01-28T06:28:29;28.85;;;14.73;;
24153;SDS011;12312;53.362;-1.518;2023-01-28T06:30:56;27.33;;;14.98;;
24153;SDS011;12312;53.362;-1.518;2023-01-28T06:33:22;28.73;;;15.38;;
24153;SDS011;12312;53.362;-1.518;2023-01-28T06:35:49;27.80;;;14.13;;
24153;SDS011;12312;53.362;-1.518;2023-01-28T06:38:14;27.25;;;12.05;;
24153;SDS011;12312;53.362;-1.518;2023-01-28T06:40:40;22.98;;;11.35;;
24153;SDS011;12312;53.362;-1.518;2023-01-28T06:43:05;17.45;;;9.93;;
24153;SDS011;12312;53.362;-1.518;2023-01-28T06:45:32;17.92;;;8.93;;
24153;SDS011;12312;53.362;-1.518;2023-01-28T06:47:58;17.52;;;9.38;;
24153;SDS011;12312;53.362;-1.518;2023-01-28T06:50:23;18.70;;;9.45;;
24153;SDS011;12312;53.362;-1.518;2023-01-28T06:52:49;16.98;;;9.15;;
24153;SDS011;12312;53.362;-1.518;2023-01-28T06:55:14;19.30;;;8.35;;
24153;SDS011;12312;53.362;-1.518;2023-01-28T06:57:40;20.80;;;8.27;;
24153;SDS011;12312;53.362;-1.518;2023-01-28T07:00:09;19.13;;;8.73;;
24153;SDS011;12312;53.362;-1.518;2023-01-28T07:02:37;17.98;;;7.80;;
24153;SDS011;12312;53.362;-1.518;2023-01-28T07:05:03;16.15;;;7.93;;
24153;SDS011;12312;53.362;-1.518;2023-01-28T07:07:30;17.45;;;7.43;;
24153;SDS011;12312;53.362;-1.518;2023-01-28T07:09:56;15.85;;;7.47;;
24153;SDS011;12312;53.362;-1.518;2023-01-28T07:12:22;14.43;;;7.50;;
24153;SDS011;12312;53.362;-1.518;2023-01-28T07:14:48;14.15;;;6.45;;
24153;SDS011;12312;53.362;-1.518;2023-01-28T07:17:13;14.70;;;7.28;;
24153;SDS011;12312;53.362;-1.518;2023-01-28T07:19:39;25.27;;;7.80;;
24153;SDS011;12312;53.362;-1.518;2023-01-28T07:22:04;18.35;;;7.60;;
24153;SDS011;12312;53.362;-1.518;2023-01-28T07:24:30;18.85;;;8.48;;
24153;SDS011;12312;53.362;-1.518;2023-01-28T07:26:57;19.42;;;7.53;;
24153;SDS011;12312;53.362;-1.518;2023-01-28T07:29:23;17.52;;;7.38;;
24153;SDS011;12312;53.362;-1.518;2023-01-28T07:31:48;20.52;;;7.55;;
24153;SDS011;12312;53.362;-1.518;2023-01-28T07:34:14;14.68;;;7.50;;
24153;SDS011;12312;53.362;-1.518;2023-01-28T07:36:39;21.30;;;7.65;;
24153;SDS011;12312;53.362;-1.518;2023-01-28T07:39:05;17.40;;;7.20;;
24153;SDS011;12312;53.362;-1.518;2023-01-28T07:41:33;15.05;;;7.35;;
24153;SDS011;12312;53.362;-1.518;2023-01-28T07:43:59;18.77;;;7.70;;
24153;SDS011;12312;53.362;-1.518;2023-01-28T07:46:24;18.00;;;7.00;;
24153;SDS011;12312;53.362;-1.518;2023-01-28T07:48:50;13.18;;;7.10;;
24153;SDS011;12312;53.362;-1.518;2023-01-28T07:51:15;19.27;;;7.20;;
24153;SDS011;12312;53.362;-1.518;2023-01-28T07:53:41;16.58;;;7.97;;
24153;SDS011;12312;53.362;-1.518;2023-01-28T07:56:06;20.45;;;8.32;;
24153;SDS011;12312;53.362;-1.518;2023-01-28T07:58:32;19.48;;;7.43;;
24153;SDS011;12312;53.362;-1.518;2023-01-28T08:00:59;19.77;;;7.68;;
24153;SDS011;12312;53.362;-1.518;2023-01-28T08:03:25;22.17;;;8.38;;
24153;SDS011;12312;53.362;-1.518;2023-01-28T08:05:52;22.73;;;8.43;;
24153;SDS011;12312;53.362;-1.518;2023-01-28T08:08:20;17.27;;;7.63;;
24153;SDS011;12312;53.362;-1.518;2023-01-28T08:10:48;19.33;;;7.38;;
24153;SDS011;12312;53.362;-1.518;2023-01-28T08:13:14;15.35;;;7.40;;
24153;SDS011;12312;53.362;-1.518;2023-01-28T08:15:40;18.95;;;7.38;;
24153;SDS011;12312;53.362;-1.518;2023-01-28T08:18:07;19.05;;;6.95;;
24153;SDS011;12312;53.362;-1.518;2023-01-28T08:20:33;22.38;;;7.50;;
24153;SDS011;12312;53.362;-1.518;2023-01-28T08:25:32;12.50;;;7.35;;
24153;SDS011;12312;53.362;-1.518;2023-01-28T08:27:58;16.52;;;8.15;;
24153;SDS011;12312;53.362;-1.518;2023-01-28T08:30:24;12.65;;;7.63;;
24153;SDS011;12312;53.362;-1.518;2023-01-28T08:32:49;17.77;;;7.43;;
24153;SDS011;12312;53.362;-1.518;2023-01-28T08:35:16;15.70;;;7.60;;
24153;SDS011;12312;53.362;-1.518;2023-01-28T08:37:41;14.52;;;8.07;;
24153;SDS011;12312;53.362;-1.518;2023-01-28T08:40:07;14.43;;;7.53;;
24153;SDS011;12312;53.362;-1.518;2023-01-28T08:42:33;17.50;;;7.93;;
24153;SDS011;12312;53.362;-1.518;2023-01-28T08:44:59;15.45;;;7.32;;
24153;SDS011;12312;53.362;-1.518;2023-01-28T08:47:24;16.48;;;7.97;;
24153;SDS011;12312;53.362;-1.518;2023-01-28T08:49:50;15.65;;;7.70;;
24153;SDS011;12312;53.362;-1.518;2023-01-28T08:52:15;17.95;;;8.07;;
24153;SDS011;12312;53.362;-1.518;2023-01-28T08:54:42;16.80;;;7.25;;
24153;SDS011;12312;53.362;-1.518;2023-01-28T08:57:07;15.98;;;7.53;;
24153;SDS011;12312;53.362;-1.518;2023-01-28T08:59:33;14.05;;;6.80;;
24153;SDS011;12312;53.362;-1.518;2023-01-28T09:01:59;11.88;;;6.70;;
24153;SDS011;12312;53.362;-1.518;2023-01-28T09:04:24;9.85;;;6.28;;
24153;SDS011;12312;53.362;-1.518;2023-01-28T09:06:50;11.63;;;5.45;;
24153;SDS011;12312;53.362;-1.518;2023-01-28T09:09:15;10.93;;;5.93;;
24153;SDS011;12312;53.362;-1.518;2023-01-28T09:11:41;15.07;;;5.70;;
24153;SDS011;12312;53.362;-1.518;2023-01-28T09:14:06;10.40;;;5.82;;
24153;SDS011;12312;53.362;-1.518;2023-01-28T09:16:32;10.30;;;5.13;;
24153;SDS011;12312;53.362;-1.518;2023-01-28T09:18:58;10.48;;;5.10;;
24153;SDS011;12312;53.362;-1.518;2023-01-28T09:21:25;13.95;;;5.25;;
24153;SDS011;12312;53.362;-1.518;2023-01-28T09:23:50;7.38;;;4.88;;
24153;SDS011;12312;53.362;-1.518;2023-01-28T09:26:16;8.77;;;4.90;;
24153;SDS011;12312;53.362;-1.518;2023-01-28T09:28:41;9.80;;;4.68;;
24153;SDS011;12312;53.362;-1.518;2023-01-28T09:31:08;9.38;;;4.70;;
24153;SDS011;12312;53.362;-1.518;2023-01-28T09:33:36;8.05;;;4.05;;
24153;SDS011;12312;53.362;-1.518;2023-01-28T09:36:03;10.88;;;4.88;;
24153;SDS011;12312;53.362;-1.518;2023-01-28T09:38:31;13.32;;;5.20;;
24153;SDS011;12312;53.362;-1.518;2023-01-28T09:40:57;9.95;;;4.13;;
24153;SDS011;12312;53.362;-1.518;2023-01-28T09:45:59;9.68;;;3.95;;
24153;SDS011;12312;53.362;-1.518;2023-01-28T09:48:38;9.23;;;3.58;;
24153;SDS011;12312;53.362;-1.518;2023-01-28T09:54:14;6.32;;;3.47;;
24153;SDS011;12312;53.362;-1.518;2023-01-28T09:56:47;8.20;;;3.60;;
24153;SDS011;12312;53.362;-1.518;2023-01-28T09:59:19;9.32;;;3.22;;
24153;SDS011;12312;53.362;-1.518;2023-01-28T10:01:52;6.03;;;3.28;;
24153;SDS011;12312;53.362;-1.518;2023-01-28T10:10:00;8.95;;;3.85;;
24153;SDS011;12312;53.362;-1.518;2023-01-28T10:18:07;8.05;;;4.07;;
24153;SDS011;12312;53.362;-1.518;2023-01-28T10:20:42;9.35;;;4.22;;
24153;SDS011;12312;53.362;-1.518;2023-01-28T10:24:05;7.80;;;3.95;;
24153;SDS011;12312;53.362;-1.518;2023-01-28T10:26:24;9.25;;;4.38;;
24153;SDS011;12312;53.362;-1.518;2023-01-28T10:28:57;5.50;;;3.15;;
24153;SDS011;12312;53.362;-1.518;2023-01-28T10:31:29;5.70;;;3.67;;
24153;SDS011;12312;53.362;-1.518;2023-01-28T10:33:59;8.60;;;3.45;;
24153;SDS011;12312;53.362;-1.518;2023-01-28T10:36:25;7.57;;;3.60;;
24153;SDS011;12312;53.362;-1.518;2023-01-28T10:38:51;7.07;;;3.50;;
24153;SDS011;12312;53.362;-1.518;2023-01-28T10:41:19;5.38;;;3.05;;
24153;SDS011;12312;53.362;-1.518;2023-01-28T10:43:46;5.25;;;2.90;;
24153;SDS011;12312;53.362;-1.518;2023-01-28T10:46:20;5.88;;;2.60;;
24153;SDS011;12312;53.362;-1.518;2023-01-28T10:49:17;5.03;;;2.30;;
24153;SDS011;12312;53.362;-1.518;2023-01-28T10:51:49;4.82;;;2.40;;
24153;SDS011;12312;53.362;-1.518;2023-01-28T10:56:45;5.80;;;2.40;;
24153;SDS011;12312;53.362;-1.518;2023-01-28T10:59:28;5.80;;;2.80;;
24153;SDS011;12312;53.362;-1.518;2023-01-28T11:01:56;6.72;;;2.70;;
24153;SDS011;12312;53.362;-1.518;2023-01-28T11:04:29;5.93;;;2.25;;
24153;SDS011;12312;53.362;-1.518;2023-01-28T11:06:57;5.03;;;1.90;;
24153;SDS011;12312;53.362;-1.518;2023-01-28T11:09:29;3.67;;;2.30;;
24153;SDS011;12312;53.362;-1.518;2023-01-28T11:14:52;2.80;;;1.88;;
24153;SDS011;12312;53.362;-1.518;2023-01-28T11:17:20;4.90;;;2.15;;
24153;SDS011;12312;53.362;-1.518;2023-01-28T11:19:48;5.50;;;2.20;;
24153;SDS011;12312;53.362;-1.518;2023-01-28T11:22:21;4.43;;;1.67;;
24153;SDS011;12312;53.362;-1.518;2023-01-28T11:25:13;3.83;;;1.85;;
24153;SDS011;12312;53.362;-1.518;2023-01-28T11:27:45;3.63;;;1.80;;
24153;SDS011;12312;53.362;-1.518;2023-01-28T11:30:26;7.25;;;1.83;;
24153;SDS011;12312;53.362;-1.518;2023-01-28T11:32:56;4.30;;;2.10;;
24153;SDS011;12312;53.362;-1.518;2023-01-28T11:35:25;4.57;;;2.25;;
24153;SDS011;12312;53.362;-1.518;2023-01-28T11:38:01;4.25;;;2.80;;
24153;SDS011;12312;53.362;-1.518;2023-01-28T11:40:27;7.80;;;3.40;;
24153;SDS011;12312;53.362;-1.518;2023-01-28T11:42:53;6.20;;;3.55;;
24153;SDS011;12312;53.362;-1.518;2023-01-28T11:48:38;6.75;;;4.25;;
24153;SDS011;12312;53.362;-1.518;2023-01-28T11:51:34;7.05;;;4.15;;
24153;SDS011;12312;53.362;-1.518;2023-01-28T12:05:02;10.50;;;4.40;;
24153;SDS011;12312;53.362;-1.518;2023-01-28T12:10:30;6.05;;;3.92;;
24153;SDS011;12312;53.362;-1.518;2023-01-28T12:13:11;7.85;;;4.25;;
24153;SDS011;12312;53.362;-1.518;2023-01-28T12:19:20;5.15;;;2.97;;
24153;SDS011;12312;53.362;-1.518;2023-01-28T12:21:56;6.53;;;2.90;;
24153;SDS011;12312;53.362;-1.518;2023-01-28T12:27:39;4.28;;;1.80;;
24153;SDS011;12312;53.362;-1.518;2023-01-28T12:41:02;4.25;;;2.08;;
24153;SDS011;12312;53.362;-1.518;2023-01-28T12:46:20;3.75;;;2.05;;
24153;SDS011;12312;53.362;-1.518;2023-01-28T12:48:53;3.25;;;2.33;;
24153;SDS011;12312;53.362;-1.518;2023-01-28T12:54:27;4.05;;;2.38;;
24153;SDS011;12312;53.362;-1.518;2023-01-28T12:57:27;4.38;;;2.40;;
24153;SDS011;12312;53.362;-1.518;2023-01-28T13:05:37;3.95;;;1.90;;
24153;SDS011;12312;53.362;-1.518;2023-01-28T13:08:12;3.70;;;2.08;;
24153;SDS011;12312;53.362;-1.518;2023-01-28T13:10:46;3.35;;;2.33;;
24153;SDS011;12312;53.362;-1.518;2023-01-28T13:13:26;4.45;;;2.42;;
24153;SDS011;12312;53.362;-1.518;2023-01-28T13:15:56;6.95;;;2.35;;
24153;SDS011;12312;53.362;-1.518;2023-01-28T13:18:30;4.03;;;2.65;;
24153;SDS011;12312;53.362;-1.518;2023-01-28T13:21:41;3.85;;;2.60;;
24153;SDS011;12312;53.362;-1.518;2023-01-28T13:31:55;3.17;;;1.88;;
24153;SDS011;12312;53.362;-1.518;2023-01-28T13:34:37;3.50;;;1.80;;
24153;SDS011;12312;53.362;-1.518;2023-01-28T13:39:47;3.45;;;1.65;;
24153;SDS011;12312;53.362;-1.518;2023-01-28T13:42:23;2.50;;;1.77;;
24153;SDS011;12312;53.362;-1.518;2023-01-28T13:44:50;4.03;;;2.03;;
24153;SDS011;12312;53.362;-1.518;2023-01-28T13:49:55;2.80;;;2.17;;
24153;SDS011;12312;53.362;-1.518;2023-01-28T13:55:04;3.50;;;2.28;;
24153;SDS011;12312;53.362;-1.518;2023-01-28T14:00:54;1.73;;;1.60;;
24153;SDS011;12312;53.362;-1.518;2023-01-28T14:18:13;1.45;;;1.20;;
24153;SDS011;12312;53.362;-1.518;2023-01-28T14:21:00;3.78;;;1.77;;
24153;SDS011;12312;53.362;-1.518;2023-01-28T14:23:28;2.17;;;1.75;;
24153;SDS011;12312;53.362;-1.518;2023-01-28T14:28:46;7.50;;;3.60;;
24153;SDS011;12312;53.362;-1.518;2023-01-28T14:31:36;3.65;;;2.28;;
24153;SDS011;12312;53.362;-1.518;2023-01-28T14:36:53;3.25;;;2.30;;
24153;SDS011;12312;53.362;-1.518;2023-01-28T14:39:24;5.60;;;3.00;;
24153;SDS011;12312;53.362;-1.518;2023-01-28T14:41:52;6.55;;;1.90;;
24153;SDS011;12312;53.362;-1.518;2023-01-28T14:44:23;3.40;;;2.08;;
24153;SDS011;12312;53.362;-1.518;2023-01-28T14:52:47;3.03;;;1.85;;
24153;SDS011;12312;53.362;-1.518;2023-01-28T14:58:25;2.90;;;1.83;;
24153;SDS011;12312;53.362;-1.518;2023-01-28T15:03:26;2.00;;;1.75;;
24153;SDS011;12312;53.362;-1.518;2023-01-28T15:08:37;4.78;;;2.28;;
24153;SDS011;12312;53.362;-1.518;2023-01-28T15:11:03;5.32;;;2.47;;
24153;SDS011;12312;53.362;-1.518;2023-01-28T15:13:36;2.85;;;2.55;;
24153;SDS011;12312;53.362;-1.518;2023-01-28T15:16:05;5.43;;;3.40;;
24153;SDS011;12312;53.362;-1.518;2023-01-28T15:18:41;4.70;;;3.47;;
24153;SDS011;12312;53.362;-1.518;2023-01-28T15:21:08;6.78;;;3.80;;
24153;SDS011;12312;53.362;-1.518;2023-01-28T15:23:36;4.95;;;3.30;;
24153;SDS011;12312;53.362;-1.518;2023-01-28T15:26:17;4.13;;;3.05;;
24153;SDS011;12312;53.362;-1.518;2023-01-28T15:28:45;5.32;;;3.30;;
24153;SDS011;12312;53.362;-1.518;2023-01-28T15:31:22;5.35;;;3.47;;
24153;SDS011;12312;53.362;-1.518;2023-01-28T15:33:56;10.73;;;3.40;;
24153;SDS011;12312;53.362;-1.518;2023-01-28T15:36:24;3.75;;;2.50;;
24153;SDS011;12312;53.362;-1.518;2023-01-28T15:38:51;5.40;;;2.40;;
24153;SDS011;12312;53.362;-1.518;2023-01-28T15:41:17;2.70;;;2.30;;
24153;SDS011;12312;53.362;-1.518;2023-01-28T15:43:47;4.82;;;3.00;;
24153;SDS011;12312;53.362;-1.518;2023-01-28T15:46:15;4.53;;;3.00;;
24153;SDS011;12312;53.362;-1.518;2023-01-28T15:48:41;5.03;;;3.35;;
24153;SDS011;12312;53.362;-1.518;2023-01-28T15:51:21;7.20;;;4.35;;
24153;SDS011;12312;53.362;-1.518;2023-01-28T15:53:52;6.88;;;4.30;;
24153;SDS011;12312;53.362;-1.518;2023-01-28T15:56:26;6.72;;;4.13;;
24153;SDS011;12312;53.362;-1.518;2023-01-28T15:58:53;5.70;;;3.40;;
24153;SDS011;12312;53.362;-1.518;2023-01-28T16:01:22;7.90;;;3.00;;
24153;SDS011;12312;53.362;-1.518;2023-01-28T16:04:04;7.15;;;3.90;;
24153;SDS011;12312;53.362;-1.518;2023-01-28T16:06:33;9.77;;;3.70;;
24153;SDS011;12312;53.362;-1.518;2023-01-28T16:09:05;7.20;;;3.65;;
24153;SDS011;12312;53.362;-1.518;2023-01-28T16:11:42;6.28;;;4.65;;
24153;SDS011;12312;53.362;-1.518;2023-01-28T16:14:26;5.03;;;3.80;;
24153;SDS011;12312;53.362;-1.518;2023-01-28T16:16:54;13.38;;;4.65;;
24153;SDS011;12312;53.362;-1.518;2023-01-28T16:19:28;12.15;;;4.38;;
24153;SDS011;12312;53.362;-1.518;2023-01-28T16:21:58;8.85;;;3.58;;
24153;SDS011;12312;53.362;-1.518;2023-01-28T16:24:25;10.10;;;7.30;;
24153;SDS011;12312;53.362;-1.518;2023-01-28T16:26:59;7.80;;;4.30;;
24153;SDS011;12312;53.362;-1.518;2023-01-28T16:29:26;6.40;;;4.38;;
24153;SDS011;12312;53.362;-1.518;2023-01-28T16:31:53;7.05;;;4.13;;
24153;SDS011;12312;53.362;-1.518;2023-01-28T16:34:19;10.75;;;5.40;;
24153;SDS011;12312;53.362;-1.518;2023-01-28T16:36:45;6.43;;;3.70;;
24153;SDS011;12312;53.362;-1.518;2023-01-28T16:39:11;5.88;;;3.22;;
24153;SDS011;12312;53.362;-1.518;2023-01-28T16:41:39;5.93;;;3.83;;
24153;SDS011;12312;53.362;-1.518;2023-01-28T16:44:09;6.43;;;4.00;;
24153;SDS011;12312;53.362;-1.518;2023-01-28T16:46:37;9.27;;;4.10;;
24153;SDS011;12312;53.362;-1.518;2023-01-28T16:49:03;8.30;;;4.45;;
24153;SDS011;12312;53.362;-1.518;2023-01-28T16:51:29;16.50;;;6.28;;
24153;SDS011;12312;53.362;-1.518;2023-01-28T16:53:56;4.95;;;3.53;;
24153;SDS011;12312;53.362;-1.518;2023-01-28T16:56:24;5.85;;;3.83;;
24153;SDS011;12312;53.362;-1.518;2023-01-28T16:58:51;14.98;;;7.38;;
24153;SDS011;12312;53.362;-1.518;2023-01-28T17:01:19;9.93;;;5.53;;
24153;SDS011;12312;53.362;-1.518;2023-01-28T17:03:45;16.88;;;8.95;;